createdAt,value
2019-03-25T00:00:50.625Z,27.02
2019-03-25T00:01:39.068Z,25.92
2019-03-25T00:02:16.479Z,27.58
2019-03-25T00:02:52.655Z,27.07
2019-03-25T00:03:29.151Z,23.90
2019-03-25T00:04:05.604Z,24.60
2019-03-25T00:04:41.683Z,24.85
2019-03-25T00:05:17.877Z,24.95
2019-03-25T00:05:53.921Z,25.35
2019-03-25T00:06:29.947Z,24.82
2019-03-25T00:07:05.963Z,24.87
2019-03-25T00:07:41.990Z,26.35
2019-03-25T00:08:18.023Z,27.65
2019-03-25T00:09:04.834Z,26.15
2019-03-25T00:09:31.642Z,26.45
2019-03-25T00:10:08.807Z,26.02
2019-03-25T00:10:44.963Z,26.02
2019-03-25T00:11:21.009Z,25.82
2019-03-25T00:11:57.244Z,26.52
2019-03-25T00:12:33.284Z,25.50
2019-03-25T00:13:09.359Z,26.02
2019-03-25T00:13:45.481Z,25.62
2019-03-25T00:14:21.585Z,26.23
2019-03-25T00:14:57.631Z,25.95
2019-03-25T00:15:33.911Z,26.68
2019-03-25T00:16:10.021Z,24.98
2019-03-25T00:16:46.161Z,25.90
2019-03-25T00:17:22.443Z,25.23
2019-03-25T00:17:58.648Z,25.72
2019-03-25T00:18:34.860Z,26.02
2019-03-25T00:19:10.780Z,25.10
2019-03-25T00:19:46.839Z,25.15
2019-03-25T00:20:22.971Z,25.85
2019-03-25T00:20:59.410Z,25.02
2019-03-25T00:21:35.487Z,25.88
2019-03-25T00:22:11.506Z,25.77
2019-03-25T00:22:47.620Z,25.27
2019-03-25T00:23:23.720Z,26.23
2019-03-25T00:23:59.841Z,24.55
2019-03-25T00:24:39.116Z,25.48
2019-03-25T00:25:13.474Z,25.37
2019-03-25T00:25:49.546Z,26.30
2019-03-25T00:26:25.731Z,27.50
2019-03-25T00:27:01.942Z,25.88
2019-03-25T00:27:38.100Z,25.77
2019-03-25T00:28:14.122Z,24.72
2019-03-25T00:28:50.122Z,26.23
2019-03-25T00:29:26.282Z,26.85
2019-03-25T00:30:02.202Z,27.07
2019-03-25T00:30:38.359Z,28.75
2019-03-25T00:31:14.381Z,27.02
2019-03-25T00:31:51.159Z,29.02
2019-03-25T00:32:27.199Z,27.50
2019-03-25T00:33:03.286Z,29.02
2019-03-25T00:33:39.338Z,29.67
2019-03-25T00:34:15.366Z,27.65
2019-03-25T00:34:51.571Z,29.02
2019-03-25T00:35:27.713Z,31.48
2019-03-25T00:36:03.783Z,28.45
2019-03-25T00:36:39.957Z,29.60
2019-03-25T00:37:16.130Z,27.20
2019-03-25T00:37:52.021Z,27.90
2019-03-25T00:38:28.077Z,28.07
2019-03-25T00:39:04.401Z,27.60
2019-03-25T00:39:40.382Z,30.15
2019-03-25T00:40:16.509Z,29.48
2019-03-25T00:40:52.541Z,29.42
2019-03-25T00:41:29.522Z,29.40
2019-03-25T00:42:05.471Z,28.73
2019-03-25T00:42:41.709Z,28.38
2019-03-25T00:43:17.781Z,28.32
2019-03-25T00:43:54.082Z,26.40
2019-03-25T00:44:30.169Z,27.65
2019-03-25T00:45:06.425Z,29.48
2019-03-25T00:45:42.579Z,28.23
2019-03-25T00:46:18.739Z,28.73
2019-03-25T00:46:54.879Z,27.87
2019-03-25T00:47:30.927Z,28.80
2019-03-25T00:48:07.223Z,29.23
2019-03-25T00:48:43.440Z,27.10
2019-03-25T00:49:19.460Z,28.47
2019-03-25T00:49:55.598Z,28.15
2019-03-25T00:50:31.845Z,29.37
2019-03-25T00:51:07.906Z,28.07
2019-03-25T00:51:43.936Z,27.58
2019-03-25T00:52:20.053Z,27.30
2019-03-25T00:52:56.292Z,28.02
2019-03-25T00:53:32.521Z,29.05
2019-03-25T00:54:08.589Z,27.95
2019-03-25T00:54:49.947Z,28.83
2019-03-25T00:55:22.482Z,27.17
2019-03-25T00:55:58.803Z,28.20
2019-03-25T00:56:34.759Z,28.75
2019-03-25T00:57:10.799Z,27.77
2019-03-25T00:57:46.799Z,29.15
2019-03-25T00:58:23.031Z,28.47
2019-03-25T00:58:59.427Z,29.27
2019-03-25T00:59:35.700Z,29.50
2019-03-25T01:00:12.262Z,28.40
2019-03-25T01:00:48.306Z,30.37
2019-03-25T01:01:24.370Z,27.37
2019-03-25T01:02:00.437Z,30.37
2019-03-25T01:02:36.687Z,29.52
2019-03-25T01:03:13.185Z,28.60
2019-03-25T01:03:49.417Z,28.40
2019-03-25T01:04:25.612Z,28.95
2019-03-25T01:05:01.718Z,29.95
2019-03-25T01:05:37.998Z,27.30
2019-03-25T01:06:14.177Z,27.73
2019-03-25T01:06:50.225Z,27.70
2019-03-25T01:07:26.258Z,26.07
2019-03-25T01:08:02.445Z,27.17
2019-03-25T01:08:38.640Z,26.07
2019-03-25T01:09:14.707Z,25.52
2019-03-25T01:09:50.697Z,27.87
2019-03-25T01:10:27.379Z,26.15
2019-03-25T01:11:03.926Z,27.58
2019-03-25T01:11:48.715Z,26.05
2019-03-25T01:12:17.933Z,27.87
2019-03-25T01:12:54.185Z,25.85
2019-03-25T01:13:30.284Z,27.85
2019-03-25T01:14:06.344Z,27.93
2019-03-25T01:14:42.552Z,25.82
2019-03-25T01:15:18.627Z,28.23
2019-03-25T01:15:54.601Z,27.90
2019-03-25T01:16:30.781Z,27.52
2019-03-25T01:17:07.079Z,28.07
2019-03-25T01:17:43.219Z,27.73
2019-03-25T01:18:19.322Z,29.07
2019-03-25T01:18:55.377Z,28.00
2019-03-25T01:19:31.538Z,28.92
2019-03-25T01:20:07.977Z,27.62
2019-03-25T01:20:44.297Z,28.67
2019-03-25T01:21:20.504Z,28.02
2019-03-25T01:21:56.637Z,28.98
2019-03-25T01:22:33.238Z,29.80
2019-03-25T01:23:09.457Z,28.12
2019-03-25T01:23:45.738Z,28.42
2019-03-25T01:24:21.837Z,27.85
2019-03-25T01:25:02.081Z,28.87
2019-03-25T01:25:35.547Z,27.82
2019-03-25T01:26:11.745Z,26.33
2019-03-25T01:26:47.923Z,28.12
2019-03-25T01:27:24.100Z,28.12
2019-03-25T01:28:00.179Z,28.07
2019-03-25T01:28:36.239Z,28.98
2019-03-25T01:29:12.199Z,27.87
2019-03-25T01:29:48.179Z,27.90
2019-03-25T01:30:24.230Z,26.45
2019-03-25T01:31:00.419Z,27.02
2019-03-25T01:31:36.477Z,26.75
2019-03-25T01:32:12.530Z,26.50
2019-03-25T01:32:48.524Z,26.37
2019-03-25T01:33:24.645Z,27.40
2019-03-25T01:34:00.758Z,28.50
2019-03-25T01:34:37.001Z,28.27
2019-03-25T01:35:13.217Z,27.20
2019-03-25T01:35:49.397Z,29.52
2019-03-25T01:36:25.562Z,26.60
2019-03-25T01:37:01.638Z,28.32
2019-03-25T01:37:37.700Z,30.02
2019-03-25T01:38:13.690Z,27.82
2019-03-25T01:38:49.992Z,29.55
2019-03-25T01:39:26.112Z,29.82
2019-03-25T01:40:02.444Z,30.97
2019-03-25T01:40:38.665Z,28.92
2019-03-25T01:41:14.699Z,28.12
2019-03-25T01:41:50.859Z,30.02
2019-03-25T01:42:26.987Z,29.25
2019-03-25T01:43:03.179Z,32.08
2019-03-25T01:43:39.259Z,30.72
2019-03-25T01:44:15.341Z,30.60
2019-03-25T01:44:51.428Z,30.75
2019-03-25T01:45:27.599Z,31.33
2019-03-25T01:46:03.827Z,30.80
2019-03-25T01:46:39.918Z,29.98
2019-03-25T01:47:15.977Z,29.15
2019-03-25T01:47:51.983Z,30.12
2019-03-25T01:48:28.118Z,31.07
2019-03-25T01:49:04.177Z,31.80
2019-03-25T01:49:40.218Z,31.05
2019-03-25T01:50:16.161Z,30.17
2019-03-25T01:50:52.219Z,29.82
2019-03-25T01:51:28.397Z,29.30
2019-03-25T01:52:04.410Z,29.60
2019-03-25T01:52:40.391Z,29.57
2019-03-25T01:53:16.463Z,26.23
2019-03-25T01:53:52.679Z,30.90
2019-03-25T01:54:28.784Z,29.65
2019-03-25T01:55:13.365Z,26.75
2019-03-25T01:55:42.806Z,28.73
2019-03-25T01:56:18.906Z,28.38
2019-03-25T01:56:55.050Z,28.45
2019-03-25T01:57:31.240Z,26.05
2019-03-25T01:58:07.419Z,27.62
2019-03-25T01:58:43.469Z,26.82
2019-03-25T01:59:19.619Z,27.85
2019-03-25T01:59:55.747Z,26.52
2019-03-25T02:00:32.005Z,26.50
2019-03-25T02:01:08.457Z,27.73
2019-03-25T02:01:44.618Z,26.97
2019-03-25T02:02:20.805Z,28.10
2019-03-25T02:02:56.701Z,26.15
2019-03-25T02:03:32.746Z,27.93
2019-03-25T02:04:08.806Z,29.23
2019-03-25T02:04:44.939Z,28.83
2019-03-25T02:05:21.137Z,27.40
2019-03-25T02:05:57.344Z,27.17
2019-03-25T02:06:33.449Z,29.23
2019-03-25T02:07:09.385Z,27.90
2019-03-25T02:07:45.594Z,28.62
2019-03-25T02:08:21.542Z,26.62
2019-03-25T02:08:57.921Z,28.05
2019-03-25T02:09:34.086Z,28.07
2019-03-25T02:10:10.546Z,26.90
2019-03-25T02:10:46.518Z,28.77
2019-03-25T02:11:22.603Z,27.22
2019-03-25T02:11:58.939Z,25.65
2019-03-25T02:12:35.079Z,26.97
2019-03-25T02:13:11.171Z,26.27
2019-03-25T02:13:47.561Z,27.05
2019-03-25T02:14:23.398Z,27.02
2019-03-25T02:14:59.487Z,26.55
2019-03-25T02:15:35.943Z,26.82
2019-03-25T02:16:11.959Z,25.70
2019-03-25T02:16:48.219Z,25.23
2019-03-25T02:17:24.304Z,26.12
2019-03-25T02:18:00.477Z,25.70
2019-03-25T02:18:36.878Z,23.30
2019-03-25T02:19:13.043Z,25.77
2019-03-25T02:19:49.259Z,22.98
2019-03-25T02:20:26.591Z,26.07
2019-03-25T02:21:04.641Z,26.30
2019-03-25T02:21:41.007Z,25.05
2019-03-25T02:22:17.319Z,24.50
2019-03-25T02:22:53.539Z,24.55
2019-03-25T02:23:30.281Z,23.98
2019-03-25T02:24:06.480Z,24.35
2019-03-25T02:24:42.767Z,22.42
2019-03-25T02:25:25.229Z,22.67
2019-03-25T02:25:56.760Z,23.55
2019-03-25T02:26:33.040Z,23.47
2019-03-25T02:27:09.125Z,22.58
2019-03-25T02:27:45.131Z,23.30
2019-03-25T02:28:21.300Z,23.98
2019-03-25T02:28:57.460Z,24.32
2019-03-25T02:29:33.699Z,23.35
2019-03-25T02:30:10.031Z,24.77
2019-03-25T02:30:46.064Z,23.12
2019-03-25T02:31:22.143Z,24.55
2019-03-25T02:31:58.357Z,24.23
2019-03-25T02:32:34.485Z,24.55
2019-03-25T02:33:10.488Z,22.45
2019-03-25T02:33:46.822Z,24.47
2019-03-25T02:34:22.771Z,27.10
2019-03-25T02:34:58.741Z,25.37
2019-03-25T02:35:34.782Z,22.87
2019-03-25T02:36:10.770Z,21.65
2019-03-25T02:36:46.849Z,22.82
2019-03-25T02:37:22.841Z,22.55
2019-03-25T02:37:59.166Z,23.98
2019-03-25T02:38:35.325Z,23.67
2019-03-25T02:39:11.482Z,24.50
2019-03-25T02:39:47.485Z,25.32
2019-03-25T02:40:23.663Z,24.27
2019-03-25T02:40:59.684Z,23.90
2019-03-25T02:41:35.643Z,24.12
2019-03-25T02:42:11.797Z,23.90
2019-03-25T02:42:47.965Z,21.60
2019-03-25T02:43:24.000Z,22.80
2019-03-25T02:44:00.179Z,20.08
2019-03-25T02:44:36.349Z,20.48
2019-03-25T02:45:12.803Z,20.08
2019-03-25T02:45:48.967Z,21.05
2019-03-25T02:46:25.360Z,21.82
2019-03-25T02:47:01.721Z,20.57
2019-03-25T02:47:37.899Z,19.25
2019-03-25T02:48:14.002Z,19.10
2019-03-25T02:48:50.183Z,18.45
2019-03-25T02:49:26.224Z,18.77
2019-03-25T02:50:02.686Z,18.57
2019-03-25T02:50:38.969Z,18.57
2019-03-25T02:51:15.023Z,16.73
2019-03-25T02:51:51.085Z,18.10
2019-03-25T02:52:27.043Z,17.73
2019-03-25T02:53:03.081Z,19.67
2019-03-25T02:53:39.043Z,20.82
2019-03-25T02:54:15.101Z,20.45
2019-03-25T02:54:51.470Z,21.87
2019-03-25T02:55:40.692Z,20.48
2019-03-25T02:56:06.066Z,19.75
2019-03-25T02:56:42.265Z,21.15
2019-03-25T02:57:18.421Z,20.02
2019-03-25T02:57:54.551Z,19.55
2019-03-25T02:58:31.105Z,21.30
2019-03-25T02:59:07.555Z,18.57
2019-03-25T02:59:43.544Z,19.60
2019-03-25T03:00:33.145Z,19.07
2019-03-25T03:01:09.243Z,18.82
2019-03-25T03:01:45.222Z,16.57
2019-03-25T03:02:21.302Z,16.60
2019-03-25T03:02:57.303Z,18.42
2019-03-25T03:03:33.342Z,17.70
2019-03-25T03:04:09.538Z,18.23
2019-03-25T03:04:45.822Z,17.60
2019-03-25T03:05:21.890Z,16.93
2019-03-25T03:05:57.822Z,16.65
2019-03-25T03:06:34.061Z,18.95
2019-03-25T03:07:10.006Z,18.27
2019-03-25T03:07:45.992Z,18.70
2019-03-25T03:08:22.194Z,18.57
2019-03-25T03:08:58.626Z,19.25
2019-03-25T03:09:34.724Z,17.42
2019-03-25T03:10:11.101Z,17.62
2019-03-25T03:10:47.303Z,16.90
2019-03-25T03:11:23.293Z,15.58
2019-03-25T03:11:59.403Z,16.97
2019-03-25T03:12:35.344Z,16.82
2019-03-25T03:13:11.349Z,19.05
2019-03-25T03:13:47.250Z,17.70
2019-03-25T03:14:23.309Z,17.65
2019-03-25T03:14:59.563Z,14.73
2019-03-25T03:15:35.852Z,14.53
2019-03-25T03:16:11.804Z,13.48
2019-03-25T03:16:47.755Z,13.25
2019-03-25T03:17:23.705Z,14.50
2019-03-25T03:17:59.986Z,13.20
2019-03-25T03:18:36.124Z,14.28
2019-03-25T03:19:12.407Z,13.28
2019-03-25T03:19:48.820Z,13.88
2019-03-25T03:20:24.900Z,15.83
2019-03-25T03:21:01.501Z,15.72
2019-03-25T03:21:37.604Z,16.37
2019-03-25T03:22:13.505Z,16.48
2019-03-25T03:22:49.638Z,15.90
2019-03-25T03:23:25.620Z,16.85
2019-03-25T03:24:02.012Z,15.90
2019-03-25T03:24:38.198Z,16.85
2019-03-25T03:25:14.300Z,18.07
2019-03-25T03:25:57.168Z,16.25
2019-03-25T03:26:28.250Z,17.02
2019-03-25T03:27:04.723Z,17.65
2019-03-25T03:27:40.982Z,17.00
2019-03-25T03:28:17.084Z,15.70
2019-03-25T03:28:53.390Z,15.90
2019-03-25T03:29:29.680Z,16.37
2019-03-25T03:30:05.866Z,16.37
2019-03-25T03:30:42.187Z,15.30
2019-03-25T03:31:18.246Z,14.63
2019-03-25T03:31:54.799Z,13.88
2019-03-25T03:32:30.994Z,13.48
2019-03-25T03:33:07.120Z,13.18
2019-03-25T03:33:43.284Z,13.53
2019-03-25T03:34:19.486Z,14.18
2019-03-25T03:34:55.578Z,14.03
2019-03-25T03:35:31.579Z,14.18
2019-03-25T03:36:07.699Z,15.00
2019-03-25T03:36:44.078Z,15.20
2019-03-25T03:37:20.212Z,13.83
2019-03-25T03:37:56.180Z,15.08
2019-03-25T03:38:32.352Z,15.00
2019-03-25T03:39:09.147Z,14.60
2019-03-25T03:39:45.363Z,15.13
2019-03-25T03:40:21.424Z,15.05
2019-03-25T03:40:57.566Z,15.95
2019-03-25T03:41:33.846Z,16.45
2019-03-25T03:42:10.099Z,15.93
2019-03-25T03:42:46.562Z,15.05
2019-03-25T03:43:22.631Z,17.05
2019-03-25T03:44:00.591Z,14.98
2019-03-25T03:44:36.570Z,15.95
2019-03-25T03:45:12.729Z,15.55
2019-03-25T03:45:49.017Z,15.93
2019-03-25T03:46:25.214Z,16.57
2019-03-25T03:47:01.309Z,15.80
2019-03-25T03:47:37.264Z,17.67
2019-03-25T03:48:13.621Z,16.73
2019-03-25T03:48:49.661Z,17.10
2019-03-25T03:49:25.923Z,17.45
2019-03-25T03:50:02.078Z,16.00
2019-03-25T03:50:38.491Z,15.43
2019-03-25T03:51:14.618Z,16.27
2019-03-25T03:51:50.900Z,15.10
2019-03-25T03:52:27.018Z,13.93
2019-03-25T03:53:03.319Z,15.83
2019-03-25T03:53:39.686Z,15.98
2019-03-25T03:54:16.278Z,15.45
2019-03-25T03:54:52.925Z,16.75
2019-03-25T03:55:30.370Z,17.00
2019-03-25T03:56:13.469Z,17.98
2019-03-25T03:56:44.528Z,16.23
2019-03-25T03:57:21.919Z,16.37
2019-03-25T03:57:59.121Z,15.72
2019-03-25T03:58:36.161Z,16.35
2019-03-25T03:59:12.347Z,17.60
2019-03-25T03:59:48.583Z,18.25
2019-03-25T04:00:30.935Z,16.77
2019-03-25T04:01:07.122Z,15.93
2019-03-25T04:01:43.150Z,15.38
2019-03-25T04:02:19.184Z,14.38
2019-03-25T04:02:55.417Z,15.60
2019-03-25T04:03:31.653Z,15.38
2019-03-25T04:04:07.743Z,14.98
2019-03-25T04:04:43.863Z,16.65
2019-03-25T04:05:20.287Z,15.18
2019-03-25T04:05:56.426Z,18.17
2019-03-25T04:06:32.536Z,16.75
2019-03-25T04:07:08.630Z,18.73
2019-03-25T04:07:44.720Z,16.90
2019-03-25T04:08:20.848Z,17.07
2019-03-25T04:08:57.099Z,17.00
2019-03-25T04:09:33.350Z,17.20
2019-03-25T04:10:09.706Z,18.17
2019-03-25T04:10:46.226Z,18.50
2019-03-25T04:11:22.485Z,18.82
2019-03-25T04:11:58.402Z,18.05
2019-03-25T04:12:34.762Z,17.42
2019-03-25T04:13:10.867Z,16.25
2019-03-25T04:13:47.039Z,17.80
2019-03-25T04:14:23.064Z,17.67
2019-03-25T04:14:59.345Z,17.60
2019-03-25T04:15:35.656Z,16.40
2019-03-25T04:16:11.731Z,16.25
2019-03-25T04:16:47.847Z,15.72
2019-03-25T04:17:24.055Z,16.27
2019-03-25T04:18:00.842Z,16.32
2019-03-25T04:18:36.842Z,15.30
2019-03-25T04:19:12.866Z,14.93
2019-03-25T04:19:48.983Z,15.55
2019-03-25T04:20:25.200Z,15.40
2019-03-25T04:21:01.914Z,15.20
2019-03-25T04:21:37.815Z,17.85
2019-03-25T04:22:13.872Z,18.98
2019-03-25T04:22:50.103Z,18.55
2019-03-25T04:23:26.453Z,20.90
2019-03-25T04:24:02.393Z,20.20
2019-03-25T04:24:38.562Z,20.48
2019-03-25T04:25:14.603Z,18.95
2019-03-25T04:25:50.835Z,17.65
2019-03-25T04:26:29.052Z,15.28
2019-03-25T04:27:04.706Z,17.65
2019-03-25T04:27:40.963Z,15.38
2019-03-25T04:28:17.105Z,15.45
2019-03-25T04:28:53.077Z,15.13
2019-03-25T04:29:29.561Z,15.32
2019-03-25T04:30:06.450Z,15.70
2019-03-25T04:30:42.644Z,15.85
2019-03-25T04:31:18.806Z,16.35
2019-03-25T04:31:54.865Z,15.68
2019-03-25T04:32:31.015Z,16.50
2019-03-25T04:33:06.986Z,16.30
2019-03-25T04:33:43.141Z,16.87
2019-03-25T04:34:19.224Z,15.65
2019-03-25T04:34:55.481Z,17.35
2019-03-25T04:35:31.547Z,15.50
2019-03-25T04:36:07.707Z,17.07
2019-03-25T04:36:43.869Z,16.15
2019-03-25T04:37:20.047Z,18.05
2019-03-25T04:37:56.638Z,16.07
2019-03-25T04:38:32.991Z,15.70
2019-03-25T04:39:09.912Z,16.40
2019-03-25T04:39:46.047Z,16.37
2019-03-25T04:40:22.187Z,15.43
2019-03-25T04:40:58.308Z,15.25
2019-03-25T04:41:34.567Z,16.70
2019-03-25T04:42:10.784Z,16.50
2019-03-25T04:42:46.984Z,15.70
2019-03-25T04:43:23.046Z,16.15
2019-03-25T04:43:59.448Z,16.95
2019-03-25T04:44:35.440Z,16.20
2019-03-25T04:45:11.599Z,15.20
2019-03-25T04:45:47.985Z,14.98
2019-03-25T04:46:24.154Z,15.80
2019-03-25T04:47:00.363Z,15.72
2019-03-25T04:47:36.517Z,14.70
2019-03-25T04:48:12.699Z,15.38
2019-03-25T04:48:48.904Z,15.85
2019-03-25T04:49:24.783Z,14.78
2019-03-25T04:50:00.975Z,16.20
2019-03-25T04:50:37.251Z,16.60
2019-03-25T04:51:13.262Z,15.88
2019-03-25T04:51:49.470Z,15.58
2019-03-25T04:52:25.552Z,17.10
2019-03-25T04:53:01.598Z,16.45
2019-03-25T04:53:37.660Z,17.07
2019-03-25T04:54:13.620Z,16.50
2019-03-25T04:54:49.784Z,16.65
2019-03-25T04:55:25.844Z,16.75
2019-03-25T04:56:02.098Z,16.23
2019-03-25T04:56:39.903Z,15.80
2019-03-25T04:57:16.205Z,17.50
2019-03-25T04:57:52.268Z,15.70
2019-03-25T04:58:28.788Z,16.35
2019-03-25T04:59:05.569Z,17.20
2019-03-25T04:59:41.607Z,17.17
2019-03-25T05:00:22.899Z,15.93
2019-03-25T05:00:59.607Z,17.67
2019-03-25T05:01:35.769Z,17.48
2019-03-25T05:02:12.009Z,17.05
2019-03-25T05:02:48.043Z,17.17
2019-03-25T05:03:24.242Z,16.15
2019-03-25T05:04:00.637Z,16.67
2019-03-25T05:04:36.665Z,16.20
2019-03-25T05:05:12.777Z,17.25
2019-03-25T05:05:48.750Z,16.45
2019-03-25T05:06:24.803Z,16.95
2019-03-25T05:07:00.925Z,16.27
2019-03-25T05:07:37.028Z,16.40
2019-03-25T05:08:13.550Z,17.20
2019-03-25T05:08:49.788Z,17.65
2019-03-25T05:09:26.144Z,17.60
2019-03-25T05:10:02.271Z,16.32
2019-03-25T05:10:38.425Z,19.25
2019-03-25T05:11:14.666Z,18.70
2019-03-25T05:11:51.125Z,19.75
2019-03-25T05:12:27.267Z,19.10
2019-03-25T05:13:03.682Z,19.05
2019-03-25T05:13:40.179Z,19.65
2019-03-25T05:14:16.327Z,18.77
2019-03-25T05:14:52.594Z,19.92
2019-03-25T05:15:28.600Z,19.85
2019-03-25T05:16:04.623Z,20.45
2019-03-25T05:16:40.842Z,20.20
2019-03-25T05:17:17.102Z,19.50
2019-03-25T05:17:53.162Z,19.70
2019-03-25T05:18:29.202Z,19.65
2019-03-25T05:19:05.494Z,17.90
2019-03-25T05:19:41.826Z,18.07
2019-03-25T05:20:18.042Z,19.73
2019-03-25T05:20:54.138Z,19.32
2019-03-25T05:21:30.165Z,17.85
2019-03-25T05:22:06.433Z,17.50
2019-03-25T05:22:42.600Z,18.50
2019-03-25T05:23:18.716Z,17.02
2019-03-25T05:23:55.528Z,17.85
2019-03-25T05:24:31.970Z,18.23
2019-03-25T05:25:08.425Z,16.55
2019-03-25T05:25:44.843Z,16.82
2019-03-25T05:26:21.125Z,15.75
2019-03-25T05:26:57.145Z,15.38
2019-03-25T05:27:33.350Z,18.62
2019-03-25T05:28:09.404Z,17.62
2019-03-25T05:28:45.553Z,16.70
2019-03-25T05:29:21.802Z,16.02
2019-03-25T05:29:57.942Z,16.57
2019-03-25T05:30:34.153Z,17.07
2019-03-25T05:31:10.314Z,16.67
2019-03-25T05:31:46.563Z,18.15
2019-03-25T05:32:22.714Z,17.12
2019-03-25T05:32:58.903Z,19.30
2019-03-25T05:33:35.040Z,18.25
2019-03-25T05:34:11.123Z,17.92
2019-03-25T05:34:47.121Z,15.88
2019-03-25T05:35:23.424Z,20.25
2019-03-25T05:35:59.528Z,19.62
2019-03-25T05:36:35.691Z,19.77
2019-03-25T05:37:11.863Z,20.23
2019-03-25T05:37:48.081Z,19.82
2019-03-25T05:38:24.385Z,20.60
2019-03-25T05:39:00.605Z,18.05
2019-03-25T05:39:36.704Z,20.57
2019-03-25T05:40:13.198Z,20.17
2019-03-25T05:40:49.406Z,20.27
2019-03-25T05:41:25.703Z,19.37
2019-03-25T05:42:01.826Z,20.45
2019-03-25T05:42:37.827Z,21.85
2019-03-25T05:43:14.359Z,21.62
2019-03-25T05:43:50.421Z,19.57
2019-03-25T05:44:26.867Z,19.40
2019-03-25T05:45:03.190Z,19.92
2019-03-25T05:45:39.592Z,18.92
2019-03-25T05:46:16.164Z,17.55
2019-03-25T05:46:52.792Z,19.95
2019-03-25T05:47:29.236Z,17.57
2019-03-25T05:48:05.516Z,18.50
2019-03-25T05:48:41.880Z,16.60
2019-03-25T05:49:18.331Z,16.23
2019-03-25T05:49:54.737Z,16.93
2019-03-25T05:50:30.952Z,17.98
2019-03-25T05:51:07.165Z,15.95
2019-03-25T05:51:43.508Z,15.83
2019-03-25T05:52:20.053Z,14.80
2019-03-25T05:52:56.384Z,15.78
2019-03-25T05:53:32.912Z,15.10
2019-03-25T05:54:09.264Z,15.30
2019-03-25T05:54:45.637Z,16.12
2019-03-25T05:55:21.862Z,14.93
2019-03-25T05:55:58.077Z,16.37
2019-03-25T05:56:34.445Z,17.02
2019-03-25T05:57:10.693Z,16.55
2019-03-25T05:57:47.014Z,14.90
2019-03-25T05:58:23.468Z,15.68
2019-03-25T05:58:59.763Z,16.52
2019-03-25T05:59:35.869Z,15.53
2019-03-25T06:00:12.358Z,15.43
2019-03-25T06:00:48.790Z,15.65
2019-03-25T06:01:25.138Z,17.00
2019-03-25T06:02:01.361Z,16.75
2019-03-25T06:02:37.663Z,18.37
2019-03-25T06:03:14.125Z,17.55
2019-03-25T06:03:50.573Z,19.35
2019-03-25T06:04:27.259Z,17.05
2019-03-25T06:05:03.674Z,18.52
2019-03-25T06:05:40.227Z,18.75
2019-03-25T06:06:16.719Z,16.82
2019-03-25T06:06:52.836Z,18.77
2019-03-25T06:07:29.198Z,18.95
2019-03-25T06:08:05.678Z,18.62
2019-03-25T06:08:42.183Z,19.02
2019-03-25T06:09:18.578Z,20.02
2019-03-25T06:09:54.821Z,20.17
2019-03-25T06:10:31.335Z,19.75
2019-03-25T06:11:07.625Z,20.65
2019-03-25T06:11:43.788Z,19.85
2019-03-25T06:12:20.143Z,20.65
2019-03-25T06:12:56.470Z,22.90
2019-03-25T06:13:32.858Z,21.45
2019-03-25T06:14:09.488Z,21.02
2019-03-25T06:14:45.941Z,22.17
2019-03-25T06:15:22.330Z,22.22
2019-03-25T06:15:58.828Z,23.15
2019-03-25T06:16:35.316Z,22.65
2019-03-25T06:17:11.672Z,23.15
2019-03-25T06:17:47.731Z,21.75
2019-03-25T06:18:23.803Z,21.52
2019-03-25T06:19:00.198Z,19.80
2019-03-25T06:19:36.544Z,19.65
2019-03-25T06:20:13.804Z,19.02
2019-03-25T06:20:50.049Z,19.48
2019-03-25T06:21:26.440Z,18.65
2019-03-25T06:22:02.815Z,20.17
2019-03-25T06:22:39.521Z,20.55
2019-03-25T06:23:15.902Z,19.52
2019-03-25T06:23:52.276Z,19.85
2019-03-25T06:24:28.818Z,19.67
2019-03-25T06:25:05.233Z,19.60
2019-03-25T06:25:41.630Z,19.85
2019-03-25T06:26:18.137Z,19.82
2019-03-25T06:26:54.298Z,20.97
2019-03-25T06:27:30.903Z,20.15
2019-03-25T06:28:07.217Z,20.08
2019-03-25T06:28:43.686Z,20.82
2019-03-25T06:29:20.436Z,21.15
2019-03-25T06:29:56.545Z,21.87
2019-03-25T06:30:33.166Z,19.07
2019-03-25T06:31:09.494Z,20.70
2019-03-25T06:31:45.779Z,19.45
2019-03-25T06:32:21.863Z,19.48
2019-03-25T06:32:58.220Z,19.62
2019-03-25T06:33:34.589Z,20.00
2019-03-25T06:34:10.988Z,20.62
2019-03-25T06:34:47.121Z,20.88
2019-03-25T06:35:23.377Z,20.88
2019-03-25T06:35:59.718Z,20.12
2019-03-25T06:36:35.995Z,17.80
2019-03-25T06:37:12.545Z,20.17
2019-03-25T06:37:49.195Z,18.73
2019-03-25T06:38:25.696Z,21.12
2019-03-25T06:39:02.461Z,19.30
2019-03-25T06:39:38.696Z,20.15
2019-03-25T06:40:15.498Z,19.62
2019-03-25T06:40:51.980Z,19.60
2019-03-25T06:41:28.447Z,19.15
2019-03-25T06:42:04.882Z,19.40
2019-03-25T06:42:41.065Z,20.70
2019-03-25T06:43:17.346Z,19.50
2019-03-25T06:43:53.734Z,21.35
2019-03-25T06:44:30.235Z,19.90
2019-03-25T06:45:06.764Z,19.75
2019-03-25T06:45:43.284Z,21.80
2019-03-25T06:46:22.097Z,20.10
2019-03-25T06:46:57.510Z,21.48
2019-03-25T06:47:34.053Z,23.00
2019-03-25T06:48:10.445Z,20.30
2019-03-25T06:48:46.741Z,18.98
2019-03-25T06:49:23.120Z,19.57
2019-03-25T06:49:59.476Z,21.42
2019-03-25T06:50:35.875Z,20.62
2019-03-25T06:51:12.613Z,19.57
2019-03-25T06:51:48.713Z,20.70
2019-03-25T06:52:25.014Z,20.48
2019-03-25T06:53:01.456Z,20.43
2019-03-25T06:53:37.971Z,19.52
2019-03-25T06:54:14.325Z,19.98
2019-03-25T06:54:50.732Z,19.90
2019-03-25T06:55:26.835Z,18.55
2019-03-25T06:56:03.159Z,19.60
2019-03-25T06:56:39.537Z,21.35
2019-03-25T06:57:25.150Z,20.45
2019-03-25T06:57:53.734Z,20.82
2019-03-25T06:58:30.172Z,21.75
2019-03-25T06:59:06.516Z,21.25
2019-03-25T06:59:42.770Z,22.13
2019-03-25T07:00:19.476Z,21.65
2019-03-25T07:00:55.705Z,21.93
2019-03-25T07:01:32.053Z,21.97
2019-03-25T07:02:08.242Z,20.95
2019-03-25T07:02:44.555Z,20.90
2019-03-25T07:03:21.063Z,22.17
2019-03-25T07:03:57.403Z,21.65
2019-03-25T07:04:33.671Z,23.00
2019-03-25T07:05:10.306Z,22.98
2019-03-25T07:05:46.487Z,22.55
2019-03-25T07:06:22.807Z,22.45
2019-03-25T07:06:59.088Z,22.52
2019-03-25T07:07:35.568Z,21.77
2019-03-25T07:08:12.047Z,21.68
2019-03-25T07:08:48.322Z,21.45
2019-03-25T07:09:24.767Z,22.87
2019-03-25T07:10:01.056Z,22.22
2019-03-25T07:10:38.047Z,23.73
2019-03-25T07:11:14.573Z,23.75
2019-03-25T07:11:51.351Z,22.98
2019-03-25T07:12:27.688Z,23.95
2019-03-25T07:13:04.583Z,24.80
2019-03-25T07:13:41.067Z,24.47
2019-03-25T07:14:18.093Z,24.23
2019-03-25T07:14:54.747Z,23.52
2019-03-25T07:15:31.464Z,24.50
2019-03-25T07:16:07.931Z,24.12
2019-03-25T07:16:44.359Z,22.65
2019-03-25T07:17:20.789Z,23.05
2019-03-25T07:17:57.160Z,23.05
2019-03-25T07:18:33.470Z,24.27
2019-03-25T07:19:09.967Z,24.55
2019-03-25T07:19:46.310Z,22.93
2019-03-25T07:20:22.828Z,22.27
2019-03-25T07:20:58.985Z,24.45
2019-03-25T07:21:35.216Z,21.95
2019-03-25T07:22:11.667Z,21.85
2019-03-25T07:22:48.098Z,22.00
2019-03-25T07:23:24.576Z,22.82
2019-03-25T07:24:01.039Z,21.73
2019-03-25T07:24:37.494Z,20.35
2019-03-25T07:25:13.858Z,23.73
2019-03-25T07:25:50.622Z,21.73
2019-03-25T07:26:26.845Z,20.85
2019-03-25T07:27:03.028Z,22.05
2019-03-25T07:27:39.533Z,22.07
2019-03-25T07:28:16.644Z,25.62
2019-03-25T07:28:53.164Z,24.52
2019-03-25T07:29:29.389Z,26.50
2019-03-25T07:30:06.607Z,23.67
2019-03-25T07:30:42.957Z,23.35
2019-03-25T07:31:19.372Z,22.45
2019-03-25T07:31:56.117Z,22.70
2019-03-25T07:32:32.626Z,20.90
2019-03-25T07:33:09.105Z,22.37
2019-03-25T07:33:45.618Z,23.18
2019-03-25T07:34:21.882Z,21.50
2019-03-25T07:34:58.149Z,19.50
2019-03-25T07:35:34.641Z,20.27
2019-03-25T07:36:10.966Z,18.40
2019-03-25T07:36:47.304Z,17.52
2019-03-25T07:37:23.889Z,17.25
2019-03-25T07:38:00.301Z,16.95
2019-03-25T07:38:36.859Z,16.73
2019-03-25T07:39:13.010Z,17.98
2019-03-25T07:39:49.482Z,17.00
2019-03-25T07:40:25.888Z,17.05
2019-03-25T07:41:02.136Z,16.95
2019-03-25T07:41:38.664Z,17.42
2019-03-25T07:42:14.877Z,15.80
2019-03-25T07:42:51.663Z,15.20
2019-03-25T07:43:28.374Z,16.02
2019-03-25T07:44:04.829Z,15.13
2019-03-25T07:44:41.262Z,15.10
2019-03-25T07:45:17.878Z,15.60
2019-03-25T07:45:54.377Z,14.83
2019-03-25T07:46:30.760Z,14.03
2019-03-25T07:47:07.817Z,14.65
2019-03-25T07:47:44.115Z,13.18
2019-03-25T07:48:20.683Z,13.32